Time;durP1;ratioP1;P1;durP2;ratioP2;P2;SDS_P1;SDS_P2;PMS_P1;PMS_P2;Temp;Humidity;BMP_temperature;BMP_pressure;BME280_temperature;BME280_humidity;BME280_pressure;Samples;Min_cycle;Max_cycle;Signal;HPM_P1;HPM_P2
2022/01/15 00:01:34;;;;;;;1.10;1.00;;;-1.00;93.80;;;;;;5034336;28;20497;-79
2022/01/15 00:04:00;;;;;;;2.17;1.13;;;-1.10;94.80;;;;;;5051568;28;20056;-80
2022/01/15 00:06:26;;;;;;;3.78;1.00;;;-1.20;95.40;;;;;;5051716;28;20393;-79
2022/01/15 00:08:51;;;;;;;2.67;1.05;;;-1.30;95.90;;;;;;5052423;28;20037;-80
2022/01/15 00:11:17;;;;;;;2.63;2.10;;;-1.30;96.10;;;;;;5060216;28;20024;-80
2022/01/15 00:13:51;;;;;;;3.45;1.17;;;-1.30;96.30;;;;;;5053853;28;20036;-79
2022/01/15 00:16:29;;;;;;;1.05;0.77;;;-1.40;96.20;;;;;;5052253;28;20172;-80
2022/01/15 00:19:09;;;;;;;3.72;1.35;;;-1.30;96.20;;;;;;5055897;28;20099;-80
2022/01/15 00:21:35;;;;;;;0.77;0.77;;;-1.30;96.10;;;;;;5055316;28;20094;-80
2022/01/15 00:24:02;;;;;;;4.13;0.80;;;-1.30;95.80;;;;;;5055404;28;20100;-79
2022/01/15 00:26:28;;;;;;;2.08;1.30;;;-1.30;94.80;;;;;;5057415;28;20044;-79
2022/01/15 00:28:54;;;;;;;2.78;1.00;;;-1.30;94.30;;;;;;5055923;28;20095;-78
2022/01/15 00:31:20;;;;;;;1.48;0.93;;;-1.30;94.30;;;;;;5055657;28;20024;-80
2022/01/15 00:33:46;;;;;;;8.75;1.10;;;-1.20;93.50;;;;;;5055286;28;20409;-80
2022/01/15 00:36:12;;;;;;;2.38;1.08;;;-1.20;93.30;;;;;;5055331;28;20389;-79
2022/01/15 00:38:38;;;;;;;1.17;0.82;;;-1.10;93.20;;;;;;5055190;28;20021;-79
2022/01/15 00:41:03;;;;;;;2.67;1.02;;;-1.10;92.70;;;;;;5054947;28;20028;-79
2022/01/15 00:43:29;;;;;;;0.70;0.57;;;-1.00;92.60;;;;;;5055432;28;20024;-79
2022/01/15 00:45:58;;;;;;;2.33;1.20;;;-1.00;92.60;;;;;;5055499;28;20032;-80
2022/01/15 00:48:25;;;;;;;1.67;0.80;;;-1.00;92.30;;;;;;5055224;28;20033;-79
2022/01/15 00:50:51;;;;;;;1.95;0.98;;;-1.00;91.90;;;;;;5047774;28;20017;-80
2022/01/15 00:53:17;;;;;;;1.48;1.17;;;-0.90;91.60;;;;;;5055498;28;20128;-79
2022/01/15 00:55:43;;;;;;;1.20;0.93;;;-0.90;91.20;;;;;;5055851;28;20017;-77
2022/01/15 00:58:09;;;;;;;3.10;1.00;;;-0.90;91.20;;;;;;5058867;28;20477;-79
2022/01/15 01:00:35;;;;;;;2.05;1.00;;;-0.90;91.10;;;;;;5055432;28;20056;-80
2022/01/15 01:03:02;;;;;;;1.20;0.52;;;-0.90;91.00;;;;;;5054937;28;20092;-79
2022/01/15 01:05:27;;;;;;;2.05;0.98;;;-0.90;91.10;;;;;;5054936;28;20033;-79
2022/01/15 01:07:53;;;;;;;3.90;0.80;;;-0.90;91.20;;;;;;5054747;28;20032;-79
2022/01/15 01:11:10;;;;;;;2.13;1.05;;;-0.90;91.20;;;;;;5054978;28;20025;-79
2022/01/15 01:23:41;;;;;;;1.25;0.88;;;-1.10;92.90;;;;;;5055221;28;20076;-79
2022/01/15 01:26:12;;;;;;;1.50;0.90;;;-1.10;93.20;;;;;;5054260;28;20040;-79
2022/01/15 01:28:43;;;;;;;1.23;1.10;;;-1.10;93.50;;;;;;5055148;28;20021;-79
2022/01/15 01:31:17;;;;;;;2.40;0.88;;;-1.10;93.90;;;;;;5056727;28;20024;-80
2022/01/15 01:33:48;;;;;;;4.53;1.10;;;-1.10;94.00;;;;;;5059001;28;20029;-76
2022/01/15 01:36:24;;;;;;;4.18;1.45;;;-1.10;94.30;;;;;;5036708;28;20036;-80
2022/01/15 01:38:56;;;;;;;3.25;1.38;;;-1.10;94.50;;;;;;5054563;28;20109;-79
2022/01/15 01:41:23;;;;;;;2.15;1.10;;;-1.10;94.70;;;;;;5054532;28;20477;-79
2022/01/15 01:43:59;;;;;;;7.85;1.40;;;-1.10;94.80;;;;;;5057597;28;20029;-78
2022/01/15 01:48:53;;;;;;;4.05;1.45;;;-1.10;94.80;;;;;;5056402;28;20089;-80
2022/01/15 01:51:31;;;;;;;1.90;1.08;;;-1.10;94.70;;;;;;5057870;28;20045;-78
2022/01/15 01:53:58;;;;;;;0.82;0.80;;;-1.10;94.60;;;;;;5058020;28;20021;-79
2022/01/15 01:56:24;;;;;;;2.58;1.20;;;-1.10;94.30;;;;;;5055689;28;20480;-79
2022/01/15 01:58:50;;;;;;;1.77;1.10;;;-1.10;94.00;;;;;;5055125;28;20032;-80
2022/01/15 02:01:16;;;;;;;4.10;1.35;;;-1.10;93.80;;;;;;5054931;28;20087;-79
2022/01/15 02:03:42;;;;;;;1.30;1.00;;;-1.10;93.50;;;;;;5055153;28;20074;-78
2022/01/15 02:06:08;;;;;;;1.15;0.80;;;-1.00;93.30;;;;;;5054096;28;20025;-79
2022/01/15 02:08:36;;;;;;;0.70;0.70;;;-1.00;92.70;;;;;;5053582;28;20080;-80
2022/01/15 02:11:06;;;;;;;;;;;-0.90;92.10;;;;;;5054715;28;20013;-79
2022/01/15 02:13:33;;;;;;;1.35;0.95;;;-0.90;91.80;;;;;;5053810;28;19991;-80
2022/01/15 02:16:02;;;;;;;2.38;0.95;;;-0.90;91.70;;;;;;5053692;28;20036;-79
2022/01/15 02:18:29;;;;;;;2.03;1.25;;;-0.80;91.70;;;;;;5052353;28;20020;-79
2022/01/15 02:23:34;;;;;;;2.35;1.00;;;-0.80;91.90;;;;;;5054132;28;20102;-80
2022/01/15 02:26:11;;;;;;;1.98;0.77;;;-0.80;92.00;;;;;;5054511;28;20017;-80
2022/01/15 02:28:40;;;;;;;1.40;1.03;;;-0.80;92.20;;;;;;5039455;28;20041;-80
2022/01/15 02:31:08;;;;;;;2.10;1.00;;;-0.80;92.30;;;;;;5055404;28;20051;-80
2022/01/15 02:33:35;;;;;;;1.60;0.90;;;-0.80;92.50;;;;;;5049592;28;20546;-80
2022/01/15 02:36:03;;;;;;;2.08;1.00;;;-0.80;92.70;;;;;;5053430;28;20432;-81
2022/01/15 02:38:28;;;;;;;2.33;1.25;;;-0.80;92.90;;;;;;5052484;28;20466;-79
2022/01/15 02:40:54;;;;;;;3.17;1.38;;;-0.70;93.20;;;;;;5053192;28;20086;-80
2022/01/15 02:43:29;;;;;;;4.45;2.08;;;-0.80;93.60;;;;;;5053073;28;20029;-78
2022/01/15 02:45:56;;;;;;;3.35;1.40;;;-0.80;94.00;;;;;;5051887;28;20068;-78
2022/01/15 02:48:27;;;;;;;1.75;1.08;;;-0.80;94.30;;;;;;5052878;28;20036;-78
2022/01/15 02:50:55;;;;;;;3.20;1.30;;;-0.90;94.80;;;;;;5030641;28;20116;-80
2022/01/15 02:53:21;;;;;;;9.15;1.65;;;-0.90;95.20;;;;;;5051979;28;20380;-79
2022/01/15 02:55:50;;;;;;;3.45;1.52;;;-0.90;95.50;;;;;;5052948;28;20033;-79
2022/01/15 02:58:18;;;;;;;3.33;1.55;;;-0.90;95.70;;;;;;5052961;28;20029;-79
2022/01/15 03:00:45;;;;;;;6.13;1.80;;;-0.90;95.90;;;;;;5035000;28;20096;-79
2022/01/15 03:03:11;;;;;;;5.95;2.10;;;-1.00;96.20;;;;;;5052684;28;20020;-80
2022/01/15 03:05:37;;;;;;;3.03;1.55;;;-1.00;96.30;;;;;;5052789;28;20036;-79
2022/01/15 03:08:04;;;;;;;4.53;1.90;;;-1.10;96.40;;;;;;5052647;28;20037;-79
2022/01/15 03:10:30;;;;;;;4.43;1.65;;;-1.10;96.60;;;;;;5050984;28;20393;-77
2022/01/15 03:12:57;;;;;;;4.40;1.60;;;-1.10;96.70;;;;;;5052344;28;20025;-78
2022/01/15 03:15:23;;;;;;;;;;;-1.10;96.80;;;;;;5052826;28;20036;-78
2022/01/15 03:17:49;;;;;;;2.10;0.90;;;-1.10;96.70;;;;;;5052212;28;19996;-79
2022/01/15 03:20:17;;;;;;;2.95;1.55;;;-1.10;96.90;;;;;;5052242;28;20130;-79
2022/01/15 03:22:42;;;;;;;;;;;-1.10;97.00;;;;;;5052802;28;20079;-82
2022/01/15 03:25:09;;;;;;;2.03;1.40;;;-1.10;97.00;;;;;;5051181;28;19904;-79
2022/01/15 03:27:35;;;;;;;2.92;1.58;;;-1.10;97.20;;;;;;5052652;28;20029;-80
2022/01/15 03:30:02;;;;;;;2.95;1.52;;;-1.20;97.40;;;;;;5052366;28;20031;-78
2022/01/15 03:32:27;;;;;;;4.63;1.95;;;-1.20;97.60;;;;;;5052253;28;20059;-79
2022/01/15 03:34:53;;;;;;;6.47;2.45;;;-1.20;97.90;;;;;;5053030;28;20178;-80
2022/01/15 03:37:19;;;;;;;6.95;1.92;;;-1.20;98.40;;;;;;5053026;28;20028;-79
2022/01/15 03:39:45;;;;;;;2.95;1.30;;;-1.20;98.40;;;;;;5057105;28;20496;-77
2022/01/15 03:42:12;;;;;;;2.95;1.75;;;-1.20;98.50;;;;;;5053195;28;20040;-79
2022/01/15 03:44:47;;;;;;;3.93;1.43;;;-1.20;98.60;;;;;;5052314;28;20056;-80
2022/01/15 03:47:13;;;;;;;5.55;1.38;;;-1.20;98.50;;;;;;5052393;28;20036;-79
2022/01/15 03:49:40;;;;;;;3.20;1.73;;;-1.20;98.40;;;;;;5056653;28;20079;-76
2022/01/15 03:52:07;;;;;;;9.15;2.50;;;-1.20;98.50;;;;;;5060739;28;20634;-79
2022/01/15 03:54:33;;;;;;;2.15;1.20;;;-1.20;98.80;;;;;;5061806;28;20595;-78
2022/01/15 03:57:00;;;;;;;2.67;1.83;;;-1.20;99.00;;;;;;5060907;28;20041;-80
2022/01/15 03:59:26;;;;;;;15.15;2.13;;;-1.20;99.10;;;;;;5059745;28;20025;-79
2022/01/15 04:01:52;;;;;;;5.88;3.35;;;-1.20;99.10;;;;;;5060191;28;20036;-79
2022/01/15 04:04:18;;;;;;;2.72;1.42;;;-1.20;99.30;;;;;;5061150;28;20029;-79
2022/01/15 04:06:44;;;;;;;1.15;0.95;;;-1.20;99.10;;;;;;5059283;28;20032;-78
2022/01/15 04:09:11;;;;;;;2.53;1.40;;;-1.20;99.20;;;;;;5064371;28;20021;-79
2022/01/15 04:11:38;;;;;;;2.65;1.17;;;-1.30;99.40;;;;;;5061145;28;20439;-78
2022/01/15 04:14:04;;;;;;;2.58;1.30;;;-1.40;99.50;;;;;;5057317;28;20033;-79
2022/01/15 04:16:30;;;;;;;2.47;1.40;;;-1.30;99.70;;;;;;5038815;28;20151;-77
2022/01/15 04:18:57;;;;;;;3.20;1.63;;;-1.30;99.80;;;;;;5039115;28;20717;-77
2022/01/15 04:21:23;;;;;;;4.17;1.17;;;-1.30;99.90;;;;;;5046895;28;20064;-77
2022/01/15 04:23:49;;;;;;;1.65;0.90;;;-1.40;99.90;;;;;;5040606;28;20106;-79
2022/01/15 04:26:15;;;;;;;2.58;1.40;;;-1.40;99.90;;;;;;5058272;28;20477;-79
2022/01/15 04:28:41;;;;;;;1.35;1.23;;;-1.30;99.90;;;;;;5058663;28;20036;-79
2022/01/15 04:31:08;;;;;;;1.80;1.08;;;-1.30;99.90;;;;;;5058504;28;20070;-80
2022/01/15 04:33:36;;;;;;;3.58;2.10;;;-1.40;99.90;;;;;;5058553;28;20029;-78
2022/01/15 04:36:03;;;;;;;2.60;0.90;;;-1.40;99.90;;;;;;5058334;28;20021;-79
2022/01/15 04:38:31;;;;;;;;;;;-1.30;99.80;;;;;;5059019;28;20029;-78
2022/01/15 04:40:57;;;;;;;3.05;1.40;;;-1.30;99.60;;;;;;5040774;28;20011;-80
2022/01/15 04:43:23;;;;;;;2.25;1.10;;;-1.30;99.10;;;;;;5061624;28;20045;-79
2022/01/15 04:45:49;;;;;;;4.28;1.35;;;-1.40;98.90;;;;;;5061004;28;20138;-78
2022/01/15 04:48:14;;;;;;;2.08;1.23;;;-1.40;98.80;;;;;;5059887;28;20044;-80
2022/01/15 04:50:40;;;;;;;0.88;0.80;;;-1.30;98.80;;;;;;5058227;28;20032;-81
2022/01/15 04:53:08;;;;;;;1.27;1.10;;;-1.30;98.60;;;;;;5058339;28;20086;-79
2022/01/15 04:55:37;;;;;;;1.35;1.05;;;-1.30;98.50;;;;;;5057174;28;20025;-80
2022/01/15 04:58:05;;;;;;;1.55;1.15;;;-1.30;98.40;;;;;;5058545;28;20028;-81
2022/01/15 05:00:32;;;;;;;0.95;0.80;;;-1.30;98.30;;;;;;5057214;28;20028;-80
2022/01/15 05:02:58;;;;;;;1.47;1.20;;;-1.30;98.30;;;;;;5055215;28;20515;-81
2022/01/15 05:05:27;;;;;;;2.15;1.13;;;-1.30;98.20;;;;;;5055107;28;20025;-80
2022/01/15 05:07:54;;;;;;;3.13;1.35;;;-1.30;98.30;;;;;;5055219;28;20043;-80
2022/01/15 05:10:24;;;;;;;3.88;1.17;;;-1.30;98.50;;;;;;5053579;28;20024;-78
2022/01/15 05:12:51;;;;;;;2.25;0.90;;;-1.30;98.50;;;;;;5033258;28;20119;-80
2022/01/15 05:15:19;;;;;;;3.55;1.58;;;-1.30;98.60;;;;;;5035155;28;20101;-78
2022/01/15 05:17:46;;;;;;;1.48;0.80;;;-1.30;98.60;;;;;;5034941;28;20021;-81
2022/01/15 05:20:16;;;;;;;3.92;1.83;;;-1.30;98.50;;;;;;5054655;28;20124;-80
2022/01/15 05:22:42;;;;;;;2.65;1.30;;;-1.30;98.50;;;;;;5054854;28;20021;-80
2022/01/15 05:25:09;;;;;;;2.30;1.27;;;-1.30;98.20;;;;;;5054935;28;20431;-79
2022/01/15 05:27:36;;;;;;;1.27;1.10;;;-1.20;98.20;;;;;;5055333;28;20087;-80
2022/01/15 05:30:04;;;;;;;2.17;1.30;;;-1.30;98.20;;;;;;5054889;28;20025;-79
2022/01/15 05:32:30;;;;;;;0.80;0.80;;;-1.20;98.20;;;;;;5054813;28;20555;-79
2022/01/15 05:34:57;;;;;;;1.20;0.98;;;-1.20;97.50;;;;;;5054561;28;20029;-79
2022/01/15 05:37:24;;;;;;;2.05;1.45;;;-1.20;97.40;;;;;;5054723;28;20092;-80
2022/01/15 05:39:49;;;;;;;2.50;1.33;;;-1.20;97.40;;;;;;5054426;28;20033;-81
2022/01/15 05:42:15;;;;;;;2.20;1.30;;;-1.20;97.30;;;;;;5050154;28;20270;-79
2022/01/15 05:44:41;;;;;;;1.85;1.20;;;-1.10;97.10;;;;;;5056995;28;20036;-78
2022/01/15 05:47:08;;;;;;;3.20;1.48;;;-1.10;96.90;;;;;;5055568;28;20201;-79
2022/01/15 05:49:34;;;;;;;2.33;1.33;;;-1.10;96.50;;;;;;5037015;28;20022;-78
2022/01/15 05:52:00;;;;;;;2.92;1.73;;;-1.10;96.40;;;;;;5054059;28;20118;-80
2022/01/15 05:54:26;;;;;;;2.92;1.23;;;-1.00;96.40;;;;;;5053916;28;20423;-80
2022/01/15 05:56:52;;;;;;;1.98;1.35;;;-1.00;96.40;;;;;;5049094;28;20029;-82
2022/01/15 05:59:17;;;;;;;2.67;1.15;;;-1.00;96.40;;;;;;5054572;28;20025;-79
2022/01/15 06:01:43;;;;;;;2.55;1.45;;;-1.00;96.30;;;;;;5054504;28;20028;-80
2022/01/15 06:04:09;;;;;;;1.45;1.13;;;-1.00;96.40;;;;;;5054419;28;20029;-81
2022/01/15 06:06:35;;;;;;;1.77;1.13;;;-1.00;96.30;;;;;;5054363;28;20025;-79
2022/01/15 06:09:03;;;;;;;3.38;1.00;;;-1.00;96.40;;;;;;5055362;28;20024;-79
2022/01/15 06:11:28;;;;;;;;;;;-1.00;96.40;;;;;;5066714;28;20089;-79
2022/01/15 06:13:54;;;;;;;1.45;1.20;;;-0.90;96.60;;;;;;5066937;28;20321;-80
2022/01/15 06:16:21;;;;;;;1.90;1.40;;;-1.00;96.50;;;;;;5067443;28;20013;-80
2022/01/15 06:18:47;;;;;;;1.85;1.30;;;-1.00;96.60;;;;;;5067788;28;20025;-80
2022/01/15 06:21:13;;;;;;;2.03;1.20;;;-1.00;96.80;;;;;;5054113;28;20049;-80
2022/01/15 06:23:39;;;;;;;1.38;1.27;;;-1.00;97.10;;;;;;5052628;28;20083;-80
2022/01/15 06:26:04;;;;;;;2.30;1.50;;;-1.00;97.00;;;;;;5051837;28;20060;-79
2022/01/15 06:28:31;;;;;;;2.53;0.95;;;-1.00;96.90;;;;;;5053436;28;20065;-80
2022/01/15 06:30:57;;;;;;;1.38;1.20;;;-1.00;97.10;;;;;;5052981;28;20493;-82
2022/01/15 06:33:23;;;;;;;0.95;0.82;;;-1.00;97.20;;;;;;5053183;28;20068;-79
2022/01/15 06:35:49;;;;;;;2.78;1.33;;;-1.00;97.10;;;;;;5036036;28;20061;-79
2022/01/15 06:38:14;;;;;;;2.40;1.10;;;-1.00;97.20;;;;;;5053666;28;20036;-79
2022/01/15 06:40:40;;;;;;;3.88;2.33;;;-0.90;97.30;;;;;;5053522;28;20031;-81
2022/01/15 06:43:06;;;;;;;2.70;1.10;;;-1.00;97.40;;;;;;5054554;28;20477;-79
2022/01/15 06:45:33;;;;;;;1.85;1.13;;;-1.00;97.50;;;;;;5054192;28;20021;-79
2022/01/15 06:47:58;;;;;;;2.10;1.40;;;-1.00;97.70;;;;;;5053675;28;20060;-81
2022/01/15 06:50:25;;;;;;;2.22;1.52;;;-1.00;97.80;;;;;;5052497;28;20045;-79
2022/01/15 06:52:51;;;;;;;0.77;0.77;;;-1.00;97.60;;;;;;5056294;28;20021;-80
2022/01/15 06:55:17;;;;;;;2.00;1.08;;;-1.00;97.50;;;;;;5053702;28;20041;-78
2022/01/15 06:57:43;;;;;;;1.85;1.10;;;-1.00;97.60;;;;;;5040417;28;20031;-78
2022/01/15 07:00:10;;;;;;;2.83;1.63;;;-0.90;97.70;;;;;;5055034;28;20817;-80
2022/01/15 07:02:37;;;;;;;1.70;1.20;;;-0.90;97.20;;;;;;5052857;28;20025;-77
2022/01/15 07:05:04;;;;;;;2.22;1.02;;;-0.90;97.10;;;;;;5053207;28;20031;-82
2022/01/15 07:07:30;;;;;;;1.35;1.25;;;-0.90;96.80;;;;;;5052549;28;20508;-80
2022/01/15 07:09:56;;;;;;;5.68;1.27;;;-0.80;96.80;;;;;;5052056;28;20060;-81
2022/01/15 07:12:22;;;;;;;5.13;0.98;;;-0.80;96.90;;;;;;5052172;28;20028;-80
2022/01/15 07:14:48;;;;;;;1.50;1.35;;;-0.70;96.90;;;;;;5053439;28;20465;-79
2022/01/15 07:17:14;;;;;;;2.30;1.33;;;-0.70;96.50;;;;;;5055294;28;20420;-79
2022/01/15 07:19:40;;;;;;;1.02;0.93;;;-0.70;96.20;;;;;;5056829;28;20025;-81
2022/01/15 07:22:06;;;;;;;0.82;0.70;;;-0.70;96.10;;;;;;5059607;28;21468;-82
2022/01/15 07:24:32;;;;;;;2.78;1.33;;;-0.60;96.00;;;;;;5053931;28;20084;-80
2022/01/15 07:26:59;;;;;;;5.13;1.10;;;-0.60;96.00;;;;;;5047903;28;20025;-81
2022/01/15 07:29:25;;;;;;;2.03;1.20;;;-0.60;95.80;;;;;;5052464;28;20100;-81
2022/01/15 07:31:52;;;;;;;2.30;0.68;;;-0.60;95.90;;;;;;5050037;28;20024;-81
2022/01/15 07:34:19;;;;;;;1.58;0.95;;;-0.60;95.70;;;;;;5051544;28;20100;-81
2022/01/15 07:36:51;;;;;;;2.97;1.33;;;-0.60;95.80;;;;;;5052534;28;20037;-79
2022/01/15 07:39:17;;;;;;;2.72;1.10;;;-0.60;95.80;;;;;;5049000;28;20025;-79
2022/01/15 07:41:43;;;;;;;2.85;1.15;;;-0.70;95.80;;;;;;5054616;28;20103;-84
2022/01/15 07:44:09;;;;;;;3.33;1.30;;;-0.70;96.00;;;;;;5055936;28;20105;-80
2022/01/15 07:46:35;;;;;;;3.75;1.33;;;-0.70;95.80;;;;;;5055164;28;20025;-80
2022/01/15 07:49:01;;;;;;;1.40;1.10;;;-0.70;96.20;;;;;;5038092;28;20182;-79
2022/01/15 07:51:28;;;;;;;6.47;1.52;;;-0.80;96.30;;;;;;5051277;28;20029;-79
2022/01/15 07:53:55;;;;;;;2.05;1.73;;;-0.80;96.50;;;;;;5052264;28;20048;-80
2022/01/15 07:56:21;;;;;;;1.98;1.33;;;-0.70;96.70;;;;;;5052326;28;20493;-81
2022/01/15 07:58:47;;;;;;;1.50;0.77;;;-0.80;96.70;;;;;;5046732;28;20031;-81
2022/01/15 08:01:14;;;;;;;1.90;1.25;;;-0.80;96.70;;;;;;5029021;28;20104;-81
2022/01/15 08:03:40;;;;;;;1.23;0.93;;;-0.80;97.10;;;;;;5050025;28;20399;-82
2022/01/15 08:06:08;;;;;;;2.67;1.77;;;-0.80;97.10;;;;;;5052512;28;20096;-81
2022/01/15 08:08:34;;;;;;;1.30;1.17;;;-0.80;97.30;;;;;;5053138;28;20509;-82
2022/01/15 08:11:00;;;;;;;6.07;1.48;;;-0.70;97.60;;;;;;5053441;28;20036;-84
2022/01/15 08:13:26;;;;;;;12.55;1.63;;;-0.70;97.50;;;;;;5053880;28;20119;-80
2022/01/15 08:15:52;;;;;;;5.25;1.48;;;-0.80;97.50;;;;;;5050575;28;20386;-78
2022/01/15 08:18:21;;;;;;;3.72;1.05;;;-0.80;97.80;;;;;;5060144;28;20028;-78
2022/01/15 08:20:48;;;;;;;1.90;1.58;;;-0.80;97.70;;;;;;5057517;28;20046;-81
2022/01/15 08:23:14;;;;;;;2.08;1.10;;;-0.80;97.60;;;;;;5056319;28;20029;-78
2022/01/15 08:25:40;;;;;;;3.30;1.58;;;-0.90;97.60;;;;;;5057200;28;20497;-83
2022/01/15 08:28:06;;;;;;;3.47;1.10;;;-0.90;97.40;;;;;;5051891;28;20060;-79
2022/01/15 08:30:32;;;;;;;4.03;1.50;;;-0.80;97.30;;;;;;5052385;28;20059;-82
2022/01/15 08:32:58;;;;;;;1.42;1.08;;;-0.70;96.40;;;;;;5059078;28;20025;-80
2022/01/15 08:35:24;;;;;;;5.03;1.30;;;-0.70;96.10;;;;;;5053862;28;20024;-79
2022/01/15 08:37:50;;;;;;;3.80;1.45;;;-0.80;94.90;;;;;;5056503;28;20029;-79
2022/01/15 08:40:20;;;;;;;2.25;1.52;;;-0.70;94.80;;;;;;5059636;28;20358;-80
2022/01/15 08:42:46;;;;;;;3.20;1.35;;;-0.70;94.30;;;;;;5055950;28;20021;-79
2022/01/15 08:45:14;;;;;;;2.33;1.50;;;-0.70;93.80;;;;;;5055648;28;20032;-81
2022/01/15 08:47:40;;;;;;;4.68;2.05;;;-0.60;93.70;;;;;;5055515;28;20178;-79
2022/01/15 08:50:08;;;;;;;4.18;1.15;;;-0.50;93.50;;;;;;5055059;28;20025;-81
2022/01/15 08:52:34;;;;;;;7.50;1.48;;;-0.50;93.00;;;;;;5055173;28;20021;-80
2022/01/15 08:55:00;;;;;;;2.67;1.45;;;-0.40;92.60;;;;;;5055430;28;20029;-80
2022/01/15 08:57:26;;;;;;;1.35;0.80;;;-0.40;92.70;;;;;;5055124;28;20151;-82
2022/01/15 08:59:52;;;;;;;4.07;1.48;;;-0.40;92.40;;;;;;5056501;28;20448;-84
2022/01/15 09:02:18;;;;;;;3.45;1.95;;;-0.40;92.50;;;;;;5056675;28;20048;-85
2022/01/15 09:04:44;;;;;;;7.07;1.50;;;-0.40;92.30;;;;;;5040999;28;20056;-87
2022/01/15 09:07:10;;;;;;;1.52;1.10;;;-0.30;92.40;;;;;;5058679;28;20149;-89
2022/01/15 09:09:36;;;;;;;1.38;0.95;;;-0.30;92.40;;;;;;5058850;28;20059;-89
2022/01/15 09:12:04;;;;;;;8.20;1.75;;;-0.20;92.20;;;;;;5058510;28;20028;-83
2022/01/15 09:14:30;;;;;;;1.30;1.15;;;-0.30;92.30;;;;;;5057176;28;20018;-85
2022/01/15 09:16:56;;;;;;;1.55;0.85;;;-0.30;92.50;;;;;;5061327;28;20477;-85
2022/01/15 09:19:22;;;;;;;2.03;1.15;;;-0.40;92.70;;;;;;5057417;28;20113;-85
2022/01/15 09:21:48;;;;;;;3.03;1.35;;;-0.50;93.10;;;;;;5059549;28;20525;-88
2022/01/15 09:24:14;;;;;;;13.50;1.85;;;-0.40;93.60;;;;;;5058464;28;20028;-87
2022/01/15 09:27:01;;;;;;;2.60;1.40;;;-0.30;94.00;;;;;;5058994;28;20036;-90
2022/01/15 09:32:13;;;;;;;2.90;1.25;;;-0.50;94.50;;;;;;5062108;28;19963;-88
2022/01/15 09:34:41;;;;;;;2.78;2.08;;;-0.60;95.20;;;;;;5063065;28;20033;-89
2022/01/15 09:37:07;;;;;;;3.58;1.40;;;-0.60;95.60;;;;;;5055072;28;20032;-87
2022/01/15 09:39:35;;;;;;;3.78;1.67;;;-0.60;95.80;;;;;;5068493;28;20024;-93
2022/01/15 09:42:02;;;;;;;2.17;1.40;;;-0.50;95.80;;;;;;5045205;28;20029;-89
2022/01/15 09:44:28;;;;;;;6.23;1.40;;;-0.40;95.50;;;;;;5059736;28;20044;-85
2022/01/15 09:46:54;;;;;;;4.35;1.50;;;-0.30;95.40;;;;;;5042584;28;20021;-86
2022/01/15 09:49:23;;;;;;;2.72;2.03;;;-0.30;95.40;;;;;;5062691;28;20073;-86
2022/01/15 09:51:49;;;;;;;9.52;1.98;;;-0.30;95.70;;;;;;5075987;28;20025;-87
2022/01/15 09:54:17;;;;;;;4.57;1.73;;;-0.50;95.80;;;;;;5055444;28;20104;-81
2022/01/15 09:56:43;;;;;;;3.47;1.55;;;-0.50;96.30;;;;;;5045798;28;20013;-80
2022/01/15 09:59:10;;;;;;;3.63;1.60;;;-0.60;96.80;;;;;;5038107;28;20400;-85
2022/01/15 10:01:37;;;;;;;7.35;2.38;;;-0.70;96.90;;;;;;5057305;28;20029;-86
2022/01/15 10:04:02;;;;;;;3.70;1.58;;;-0.60;97.30;;;;;;5040450;28;20046;-86
2022/01/15 10:06:28;;;;;;;3.75;1.70;;;-0.60;97.30;;;;;;5057734;28;20025;-84
2022/01/15 10:09:08;;;;;;;3.80;1.60;;;-0.60;97.20;;;;;;5058256;28;20025;-86
2022/01/15 10:11:41;;;;;;;2.15;1.50;;;-0.50;96.70;;;;;;5056552;28;20040;-85
2022/01/15 10:14:32;;;;;;;3.28;1.50;;;-0.50;96.50;;;;;;5055950;28;20056;-87
2022/01/15 10:17:00;;;;;;;4.70;1.33;;;-0.50;96.30;;;;;;5037284;28;20033;-83
2022/01/15 10:19:37;;;;;;;4.07;1.27;;;-0.50;96.00;;;;;;5056116;28;20021;-86
2022/01/15 10:22:13;;;;;;;1.70;1.42;;;-0.40;95.50;;;;;;5056332;28;20090;-86
2022/01/15 10:24:42;;;;;;;3.05;1.70;;;-0.30;95.30;;;;;;5071019;28;20095;-87
2022/01/15 10:27:22;;;;;;;2.47;1.83;;;-0.30;94.60;;;;;;5046028;28;20032;-85
2022/01/15 10:30:05;;;;;;;1.73;1.05;;;-0.10;94.60;;;;;;5059633;28;20024;-87
2022/01/15 10:32:34;;;;;;;1.42;1.13;;;-0.10;94.00;;;;;;5076508;28;20051;-87
2022/01/15 10:35:01;;;;;;;2.70;1.40;;;0.00;93.80;;;;;;5075244;28;20029;-87
2022/01/15 10:37:37;;;;;;;4.38;2.33;;;0.00;93.30;;;;;;5063340;28;20025;-89
2022/01/15 10:40:12;;;;;;;4.53;1.73;;;0.00;93.30;;;;;;5046384;28;20029;-91
2022/01/15 10:42:38;;;;;;;3.65;1.58;;;-0.10;93.20;;;;;;5038374;28;20028;-84
2022/01/15 10:45:13;;;;;;;3.55;1.65;;;-0.20;93.30;;;;;;5038132;28;20024;-85
2022/01/15 10:47:47;;;;;;;2.85;1.30;;;-0.20;93.30;;;;;;5055136;28;20028;-84
2022/01/15 10:50:34;;;;;;;2.20;1.05;;;-0.30;93.00;;;;;;5050321;28;20490;-84
2022/01/15 10:53:10;;;;;;;2.58;1.20;;;-0.30;92.90;;;;;;5044313;28;20025;-91
2022/01/15 10:55:38;;;;;;;3.20;1.48;;;-0.40;93.10;;;;;;5054145;28;20043;-90
2022/01/15 10:58:12;;;;;;;1.85;1.30;;;-0.40;93.00;;;;;;5062938;28;20017;-88
2022/01/15 11:00:54;;;;;;;3.45;1.30;;;-0.40;92.90;;;;;;5056054;28;20104;-90
2022/01/15 11:03:33;;;;;;;2.70;1.75;;;-0.40;92.70;;;;;;5061343;28;20025;-89
2022/01/15 11:06:39;;;;;;;1.73;1.20;;;-0.50;92.50;;;;;;5077931;28;20013;-93
2022/01/15 11:09:05;;;;;;;1.83;1.38;;;-0.50;92.30;;;;;;5040691;28;20139;-88
2022/01/15 11:11:32;;;;;;;3.47;1.52;;;-0.60;92.00;;;;;;5060162;28;20037;-87
2022/01/15 11:13:58;;;;;;;3.45;1.58;;;-0.60;92.20;;;;;;5056692;28;20029;-87
2022/01/15 11:16:24;;;;;;;2.75;1.35;;;-0.60;92.60;;;;;;5042928;28;20469;-90
2022/01/15 11:18:56;;;;;;;2.40;1.10;;;-0.60;92.60;;;;;;5060114;28;20025;-88
2022/01/15 11:21:33;;;;;;;2.85;1.13;;;-0.60;92.70;;;;;;5043588;28;20048;-89
2022/01/15 11:24:03;;;;;;;2.50;1.42;;;-0.50;92.70;;;;;;4989330;28;20042;-90
2022/01/15 11:26:32;;;;;;;9.88;1.80;;;-0.50;92.60;;;;;;5058623;28;20027;-89
2022/01/15 11:28:59;;;;;;;2.80;1.08;;;-0.50;92.60;;;;;;5042608;28;20037;-86
2022/01/15 11:31:33;;;;;;;2.25;1.42;;;-0.60;92.30;;;;;;5037758;28;20059;-84
2022/01/15 11:34:02;;;;;;;8.07;1.70;;;-0.60;92.30;;;;;;5053096;28;20036;-89
2022/01/15 11:36:41;;;;;;;3.70;1.58;;;-0.60;92.30;;;;;;5055229;28;20021;-87
2022/01/15 11:39:12;;;;;;;4.93;1.58;;;-0.60;92.50;;;;;;5039227;28;20048;-88
2022/01/15 11:41:40;;;;;;;2.58;1.30;;;-0.70;92.50;;;;;;5056928;28;20025;-87
2022/01/15 11:44:15;;;;;;;5.85;2.40;;;-0.70;92.60;;;;;;5060590;28;20081;-86
2022/01/15 11:46:49;;;;;;;4.13;1.90;;;-0.70;92.70;;;;;;5070065;28;20029;-90
2022/01/15 11:49:24;;;;;;;4.22;1.95;;;-0.70;92.90;;;;;;5043800;28;20067;-87
2022/01/15 11:52:12;;;;;;;2.30;1.63;;;-0.70;93.10;;;;;;5029079;28;20125;-89
2022/01/15 11:55:05;;;;;;;8.68;2.38;;;-0.70;93.30;;;;;;4965853;28;20096;-89
2022/01/15 11:57:46;;;;;;;2.58;1.55;;;-0.60;93.40;;;;;;5003543;28;20041;-84
2022/01/15 12:00:24;;;;;;;2.17;1.10;;;-0.60;93.60;;;;;;4999351;28;20026;-84
2022/01/15 12:02:59;;;;;;;;;;;-0.70;93.80;;;;;;4998599;28;20402;-82
2022/01/15 12:05:32;;;;;;;3.05;1.90;;;-0.70;94.00;;;;;;5028950;28;20329;-91
2022/01/15 12:08:03;;;;;;;2.35;1.58;;;-0.70;94.30;;;;;;5037956;28;20033;-86
2022/01/15 12:10:43;;;;;;;8.48;2.47;;;-0.70;94.50;;;;;;5041863;28;20030;-87
2022/01/15 12:13:23;;;;;;;6.07;2.03;;;-0.70;94.70;;;;;;5040228;28;20533;-87
2022/01/15 12:16:11;;;;;;;3.80;1.70;;;-0.70;94.80;;;;;;5026543;28;20097;-87
2022/01/15 12:18:45;;;;;;;7.32;1.60;;;-0.70;94.70;;;;;;5038812;28;20033;-86
2022/01/15 12:21:11;;;;;;;3.10;1.95;;;-0.70;94.50;;;;;;5005916;28;20646;-85
2022/01/15 12:23:37;;;;;;;4.72;2.17;;;-0.70;94.60;;;;;;5015637;28;20050;-86
2022/01/15 12:26:10;;;;;;;3.75;1.98;;;-0.70;94.70;;;;;;5016901;28;20026;-85
2022/01/15 12:28:36;;;;;;;4.40;1.75;;;-0.70;94.80;;;;;;5032796;28;20069;-85
2022/01/15 12:31:24;;;;;;;3.22;1.88;;;-0.70;95.00;;;;;;5067081;28;20036;-90
2022/01/15 12:33:51;;;;;;;3.05;1.95;;;-0.70;95.00;;;;;;5076589;28;20041;-87
2022/01/15 12:36:17;;;;;;;1.42;1.33;;;-0.70;94.80;;;;;;5063055;28;20379;-88
2022/01/15 12:38:43;;;;;;;8.23;1.90;;;-0.70;94.70;;;;;;5057152;28;20017;-88
2022/01/15 12:41:10;;;;;;;3.92;1.80;;;-0.70;94.60;;;;;;5066987;28;20035;-84
2022/01/15 12:43:39;;;;;;;1.85;1.23;;;-0.60;94.60;;;;;;5066488;28;20534;-82
2022/01/15 12:46:12;;;;;;;1.80;1.30;;;-0.70;94.30;;;;;;5075361;28;20028;-87
2022/01/15 12:48:43;;;;;;;3.80;1.70;;;-0.60;94.30;;;;;;5070700;28;20049;-86
2022/01/15 12:51:14;;;;;;;4.32;2.17;;;-0.60;94.20;;;;;;5066779;28;20053;-89
2022/01/15 12:53:44;;;;;;;7.70;1.67;;;-0.60;94.20;;;;;;5053939;28;20024;-91
2022/01/15 12:56:13;;;;;;;2.78;1.50;;;-0.60;94.50;;;;;;5070546;28;20028;-85
2022/01/15 12:58:42;;;;;;;3.75;1.60;;;-0.60;94.70;;;;;;5044678;28;20029;-85
2022/01/15 13:01:13;;;;;;;4.80;1.92;;;-0.70;95.00;;;;;;5069516;28;20028;-87
2022/01/15 13:03:50;;;;;;;6.47;1.52;;;-0.70;95.10;;;;;;5077682;28;20040;-88
2022/01/15 13:06:15;;;;;;;3.50;1.67;;;-0.80;95.10;;;;;;5059453;28;20056;-86
2022/01/15 13:08:42;;;;;;;3.25;1.90;;;-0.80;94.60;;;;;;5022241;28;20527;-87
2022/01/15 13:13:44;;;;;;;4.00;1.67;;;-0.70;94.20;;;;;;5029645;28;20243;-85
2022/01/15 13:16:15;;;;;;;2.88;1.52;;;-0.70;94.30;;;;;;5057944;28;20022;-86